Search for airport 
image banner adimage banner adimage banner ad
image banner ad

PS35 - Dutch Country Egg Farms

Located in Fredericksburg, United States

ICAO - PS35, IATA -

Data provided by Airmate  

General information

Coordinates: N40°27'29" W76°27'29"
Elevation is 550 feet MSL.
Magnetic variation is -10° East
View others Airports in Pennsylvania

Operational data

Special qualification required
Current time UTC:
Current local time:
METAR: KMUI 091456Z AUTO 00000KT 10SM SCT100 11/03 A3008 RMK AO2 SLP190 T01110029 57009
View NOTAMs / SUP AIP / TFR affecting this airport [VIEW]
Communications frequencies: [VIEW]

Runways:

RWY identifierQFULength (ft)Width (ft)SurfaceLDA (ft)
092400200GRASS
272400200GRASS

Airport contact information

Address: Fredericksburg United States

Satellite view of PS35